createdAt,value
2024-01-19T00:01:25.996Z,18.87
2024-01-19T00:03:53.080Z,18.81
2024-01-19T00:06:20.364Z,18.76
2024-01-19T00:08:51.102Z,18.79
2024-01-19T00:11:19.467Z,18.72
2024-01-19T00:13:47.680Z,18.69
2024-01-19T00:16:14.817Z,18.62
2024-01-19T00:18:42.219Z,18.52
2024-01-19T00:21:09.204Z,18.54
2024-01-19T00:23:39.567Z,18.60
2024-01-19T00:26:06.862Z,18.62
2024-01-19T00:28:34.316Z,18.64
2024-01-19T00:31:03.600Z,18.60
2024-01-19T00:33:30.935Z,18.60
2024-01-19T00:35:58.129Z,18.58
2024-01-19T00:38:25.992Z,18.49
2024-01-19T00:40:53.516Z,18.49
2024-01-19T00:43:20.656Z,18.41
2024-01-19T00:45:47.782Z,18.43
2024-01-19T00:48:15.094Z,18.40
2024-01-19T00:50:42.246Z,18.33
2024-01-19T00:53:09.756Z,18.38
2024-01-19T00:55:36.782Z,18.40
2024-01-19T00:58:03.790Z,18.41
2024-01-19T01:00:30.844Z,18.40
2024-01-19T01:02:58.650Z,18.38
2024-01-19T01:05:25.918Z,18.36
2024-01-19T01:07:53.029Z,18.32
2024-01-19T01:10:20.151Z,18.35
2024-01-19T01:12:47.260Z,18.31
2024-01-19T01:15:15.627Z,18.30
2024-01-19T01:17:43.010Z,18.34
2024-01-19T01:20:13.822Z,18.38
2024-01-19T01:22:40.945Z,18.39
2024-01-19T01:25:08.063Z,18.38
2024-01-19T01:27:35.116Z,18.40
2024-01-19T01:30:08.282Z,18.41
2024-01-19T01:32:35.814Z,18.41
2024-01-19T01:35:03.856Z,18.40
2024-01-19T01:37:31.317Z,18.40
2024-01-19T01:39:58.449Z,18.39
2024-01-19T01:42:25.557Z,18.37
2024-01-19T01:44:52.683Z,18.37
2024-01-19T01:47:19.856Z,18.36
2024-01-19T01:49:47.154Z,18.35
2024-01-19T01:52:14.478Z,18.34
2024-01-19T01:54:41.545Z,18.34
2024-01-19T01:57:09.066Z,18.29
2024-01-19T01:59:36.197Z,18.28
2024-01-19T02:02:04.276Z,18.31
2024-01-19T02:04:31.561Z,18.31
2024-01-19T02:06:58.894Z,18.31
2024-01-19T02:09:26.065Z,18.26
2024-01-19T02:11:54.088Z,18.23
2024-01-19T02:14:21.129Z,18.20
2024-01-19T02:16:48.259Z,18.15
2024-01-19T02:19:15.398Z,18.20
2024-01-19T02:21:42.834Z,18.20
2024-01-19T02:24:14.553Z,18.20
2024-01-19T02:26:42.022Z,18.17
2024-01-19T02:29:09.103Z,18.16
2024-01-19T02:31:36.220Z,18.17
2024-01-19T02:34:03.659Z,18.13
2024-01-19T02:36:30.617Z,18.14
2024-01-19T02:38:57.630Z,18.09
2024-01-19T02:41:24.815Z,18.06
2024-01-19T02:43:51.790Z,18.10
2024-01-19T02:46:21.770Z,18.07
2024-01-19T02:48:48.979Z,18.00
2024-01-19T02:51:16.070Z,17.99
2024-01-19T02:53:43.163Z,18.04
2024-01-19T02:56:10.316Z,17.99
2024-01-19T02:58:37.319Z,18.05
2024-01-19T03:01:04.445Z,18.02
2024-01-19T03:03:31.573Z,18.04
2024-01-19T03:05:58.630Z,18.05
2024-01-19T03:08:25.851Z,18.00
2024-01-19T03:10:52.972Z,18.01
2024-01-19T03:13:20.175Z,17.95
2024-01-19T03:15:47.164Z,17.99
2024-01-19T03:18:14.656Z,17.98
2024-01-19T03:20:41.880Z,17.93
2024-01-19T03:23:09.757Z,17.96
2024-01-19T03:25:36.914Z,17.95
2024-01-19T03:28:04.224Z,17.86
2024-01-19T03:30:31.337Z,17.89
2024-01-19T03:32:58.504Z,17.85
2024-01-19T03:35:26.574Z,17.81
2024-01-19T03:37:53.827Z,17.77
2024-01-19T03:40:21.874Z,17.80
2024-01-19T03:42:48.951Z,17.71
2024-01-19T03:45:16.125Z,17.73
2024-01-19T03:47:45.042Z,17.60
2024-01-19T03:50:12.496Z,17.57
2024-01-19T03:52:39.708Z,17.50
2024-01-19T03:55:06.927Z,17.43
2024-01-19T03:57:34.122Z,17.41
2024-01-19T04:00:01.479Z,17.32
2024-01-19T04:02:38.912Z,17.29
2024-01-19T04:05:06.522Z,17.20
2024-01-19T04:07:33.491Z,17.01
2024-01-19T04:10:00.619Z,16.93
2024-01-19T04:12:27.624Z,16.96
2024-01-19T04:14:54.664Z,16.92
2024-01-19T04:17:21.777Z,16.95
2024-01-19T04:19:48.905Z,16.85
2024-01-19T04:22:16.005Z,16.69
2024-01-19T04:24:43.128Z,16.57
2024-01-19T04:27:10.907Z,16.53
2024-01-19T04:29:38.005Z,16.41
2024-01-19T04:32:05.381Z,16.22
2024-01-19T04:34:32.538Z,16.16
2024-01-19T04:36:59.586Z,16.20
2024-01-19T04:39:26.971Z,15.96
2024-01-19T04:41:54.120Z,15.94
2024-01-19T04:44:21.324Z,15.97
2024-01-19T04:46:48.445Z,15.96
2024-01-19T04:49:15.572Z,16.01
2024-01-19T04:51:42.935Z,15.88
2024-01-19T04:54:11.887Z,15.78
2024-01-19T04:56:38.931Z,15.81
2024-01-19T04:59:06.584Z,15.81
2024-01-19T05:01:33.581Z,15.74
2024-01-19T05:04:01.100Z,15.67
2024-01-19T05:06:28.723Z,15.71
2024-01-19T05:08:55.985Z,15.74
2024-01-19T05:11:23.362Z,15.80
2024-01-19T05:13:50.482Z,15.79
2024-01-19T05:16:17.879Z,15.76
2024-01-19T05:18:44.916Z,15.74
2024-01-19T05:21:11.974Z,15.69
2024-01-19T05:23:39.052Z,15.60
2024-01-19T05:26:06.287Z,15.56
2024-01-19T05:28:35.192Z,15.51
2024-01-19T05:31:02.337Z,15.51
2024-01-19T05:33:32.067Z,15.48
2024-01-19T05:36:00.029Z,15.44
2024-01-19T05:38:27.077Z,15.36
2024-01-19T05:40:54.216Z,15.26
2024-01-19T05:43:21.194Z,15.27
2024-01-19T05:45:48.178Z,15.32
2024-01-19T05:48:15.409Z,15.30
2024-01-19T05:50:42.564Z,15.25
2024-01-19T05:53:09.683Z,15.22
2024-01-19T05:55:36.727Z,15.31
2024-01-19T05:58:06.338Z,15.30
2024-01-19T06:00:34.780Z,15.31
2024-01-19T06:03:01.957Z,15.30
2024-01-19T06:05:29.202Z,15.33
2024-01-19T06:07:56.303Z,15.30
2024-01-19T06:10:23.422Z,15.33
2024-01-19T06:12:50.419Z,15.30
2024-01-19T06:15:17.422Z,15.37
2024-01-19T06:17:44.927Z,15.35
2024-01-19T06:20:12.755Z,15.31
2024-01-19T06:22:40.224Z,15.20
2024-01-19T06:25:07.652Z,15.17
2024-01-19T06:27:34.920Z,15.08
2024-01-19T06:30:02.061Z,15.06
2024-01-19T06:32:29.266Z,15.09
2024-01-19T06:34:56.666Z,15.11
2024-01-19T06:37:24.149Z,15.12
2024-01-19T06:39:51.165Z,15.13
2024-01-19T06:42:18.140Z,15.12
2024-01-19T06:44:45.667Z,15.13
2024-01-19T06:47:12.749Z,15.07
2024-01-19T06:49:40.497Z,15.02
2024-01-19T06:52:07.864Z,15.03
2024-01-19T06:54:35.029Z,15.06
2024-01-19T06:57:02.773Z,15.06
2024-01-19T06:59:29.982Z,15.02
2024-01-19T07:01:57.081Z,15.05
2024-01-19T07:04:24.244Z,15.00
2024-01-19T07:06:51.515Z,14.98
2024-01-19T07:09:18.899Z,14.97
2024-01-19T07:11:46.743Z,14.93
2024-01-19T07:14:14.119Z,14.74
2024-01-19T07:16:41.811Z,14.68
2024-01-19T07:19:09.043Z,14.63
2024-01-19T07:21:40.002Z,14.54
2024-01-19T07:24:08.982Z,14.44
2024-01-19T07:26:37.167Z,14.57
2024-01-19T07:29:08.602Z,14.32
2024-01-19T07:31:36.198Z,14.34
2024-01-19T07:34:04.599Z,14.47
2024-01-19T07:36:32.640Z,14.51
2024-01-19T07:38:59.922Z,14.48
2024-01-19T07:41:27.301Z,14.39
2024-01-19T07:43:56.226Z,14.52
2024-01-19T07:46:23.328Z,14.49
2024-01-19T07:48:50.754Z,14.64
2024-01-19T07:51:18.153Z,14.77
2024-01-19T07:53:45.237Z,14.89
2024-01-19T07:56:15.367Z,14.79
2024-01-19T07:58:45.509Z,14.72
2024-01-19T08:01:13.096Z,14.80
2024-01-19T08:03:40.562Z,14.77
2024-01-19T08:06:08.016Z,14.72
2024-01-19T08:08:35.204Z,14.76
2024-01-19T08:11:02.437Z,14.83
2024-01-19T08:13:29.478Z,14.75
2024-01-19T08:15:56.481Z,14.87
2024-01-19T08:18:23.707Z,14.96
2024-01-19T08:20:50.937Z,14.83
2024-01-19T08:23:17.965Z,14.88
2024-01-19T08:25:46.289Z,14.76
2024-01-19T08:28:16.657Z,14.75
2024-01-19T08:30:43.834Z,14.80
2024-01-19T08:33:10.907Z,14.75
2024-01-19T08:35:38.144Z,14.73
2024-01-19T08:38:05.280Z,14.73
2024-01-19T08:40:35.213Z,14.73
2024-01-19T08:43:04.102Z,14.73
2024-01-19T08:45:32.672Z,14.69
2024-01-19T08:48:00.120Z,14.68
2024-01-19T08:50:28.710Z,14.68
2024-01-19T08:52:56.989Z,14.63
2024-01-19T08:55:24.139Z,14.68
2024-01-19T08:57:51.285Z,14.63
2024-01-19T09:00:18.568Z,14.62
2024-01-19T09:02:57.083Z,14.62
2024-01-19T09:05:33.421Z,14.63
2024-01-19T09:08:01.337Z,14.64
2024-01-19T09:10:28.517Z,14.69
2024-01-19T09:12:55.664Z,14.67
2024-01-19T09:15:23.119Z,14.63
2024-01-19T09:17:50.276Z,14.71
2024-01-19T09:20:17.485Z,14.68
2024-01-19T09:22:44.870Z,14.69
2024-01-19T09:25:13.008Z,14.70
2024-01-19T09:27:40.175Z,14.63
2024-01-19T09:30:08.181Z,14.44
2024-01-19T09:32:35.358Z,14.38
2024-01-19T09:35:02.419Z,14.22
2024-01-19T09:37:29.630Z,14.06
2024-01-19T09:39:56.724Z,13.91
2024-01-19T09:42:34.904Z,13.85
2024-01-19T09:45:06.233Z,13.97
2024-01-19T09:48:04.366Z,13.79
2024-01-19T09:50:36.813Z,13.66
2024-01-19T09:53:21.873Z,13.88
2024-01-19T09:55:48.979Z,13.73
2024-01-19T09:58:17.278Z,13.57
2024-01-19T10:00:44.995Z,13.71
2024-01-19T10:03:14.531Z,13.72
2024-01-19T10:05:41.914Z,13.62
2024-01-19T10:08:11.803Z,13.62
2024-01-19T10:10:42.337Z,13.65
2024-01-19T10:13:09.798Z,13.64
2024-01-19T10:15:36.882Z,13.69
2024-01-19T10:18:06.747Z,13.77
2024-01-19T10:20:34.327Z,13.80
2024-01-19T10:23:22.567Z,13.83
2024-01-19T10:25:50.933Z,13.74
2024-01-19T10:28:36.744Z,13.71
2024-01-19T10:31:27.600Z,13.81
2024-01-19T10:33:58.297Z,13.89
2024-01-19T10:36:27.551Z,13.82
2024-01-19T10:38:54.734Z,13.88
2024-01-19T10:41:27.216Z,13.81
2024-01-19T10:43:54.622Z,13.83
2024-01-19T10:46:23.544Z,13.79
2024-01-19T10:48:54.426Z,13.85
2024-01-19T10:51:22.306Z,13.78
2024-01-19T10:53:53.367Z,13.84
2024-01-19T10:56:23.444Z,13.69
2024-01-19T10:58:51.216Z,13.65
2024-01-19T11:01:19.365Z,13.66
2024-01-19T11:03:46.691Z,13.79
2024-01-19T11:06:14.222Z,13.70
2024-01-19T11:08:41.802Z,13.76
2024-01-19T11:11:09.031Z,13.65
2024-01-19T11:13:44.047Z,13.49
2024-01-19T11:16:22.445Z,13.68
2024-01-19T11:18:50.382Z,13.78
2024-01-19T11:21:17.617Z,13.65
2024-01-19T11:23:45.733Z,13.57
2024-01-19T11:26:25.431Z,13.68
2024-01-19T11:29:02.834Z,13.63
2024-01-19T11:31:34.065Z,13.49
2024-01-19T11:34:01.376Z,13.65
2024-01-19T11:36:34.675Z,13.70
2024-01-19T11:39:01.804Z,13.40
2024-01-19T11:41:35.155Z,13.21
2024-01-19T11:44:06.607Z,13.45
2024-01-19T11:47:00.339Z,13.64
2024-01-19T11:49:40.174Z,13.34
2024-01-19T11:52:27.696Z,13.46
2024-01-19T11:54:54.732Z,13.30
2024-01-19T11:57:22.811Z,13.42
2024-01-19T11:59:50.067Z,13.57
2024-01-19T12:02:24.682Z,13.72
2024-01-19T12:04:53.180Z,13.61
2024-01-19T12:07:23.506Z,13.52
2024-01-19T12:10:10.619Z,13.60
2024-01-19T12:12:41.879Z,13.63
2024-01-19T12:15:10.952Z,13.51
2024-01-19T12:17:42.094Z,12.96
2024-01-19T12:20:20.466Z,12.89
2024-01-19T12:22:54.231Z,12.93
2024-01-19T12:25:23.676Z,13.10
2024-01-19T12:27:51.496Z,13.08
2024-01-19T12:30:20.678Z,12.94
2024-01-19T12:32:48.847Z,12.98
2024-01-19T12:35:21.093Z,13.03
2024-01-19T12:37:48.701Z,13.31
2024-01-19T12:40:18.651Z,13.46
2024-01-19T12:42:46.449Z,13.54
2024-01-19T12:45:17.625Z,13.70
2024-01-19T12:47:49.263Z,13.80
2024-01-19T12:50:23.015Z,13.81
2024-01-19T12:52:53.288Z,13.86
2024-01-19T12:55:28.221Z,13.90
2024-01-19T12:57:55.597Z,13.88
2024-01-19T13:00:31.745Z,13.89
2024-01-19T13:03:00.116Z,13.88
2024-01-19T13:05:30.644Z,13.83
2024-01-19T13:08:02.743Z,13.82
2024-01-19T13:10:30.803Z,13.78
2024-01-19T13:13:10.216Z,13.76
2024-01-19T13:15:37.993Z,13.74
2024-01-19T13:18:12.405Z,13.75
2024-01-19T13:20:40.905Z,13.74
2024-01-19T13:23:09.322Z,13.76
2024-01-19T13:25:38.819Z,13.73
2024-01-19T13:28:06.677Z,13.67
2024-01-19T13:30:36.034Z,13.71
2024-01-19T13:33:03.632Z,13.72
2024-01-19T13:35:31.515Z,13.76
2024-01-19T13:37:58.858Z,13.65
2024-01-19T13:40:26.284Z,13.67
2024-01-19T13:42:53.563Z,13.68
2024-01-19T13:45:20.935Z,13.65
2024-01-19T13:47:47.975Z,13.69
2024-01-19T13:50:15.458Z,13.72
2024-01-19T13:52:42.768Z,13.73
2024-01-19T13:55:10.223Z,13.73
2024-01-19T13:57:37.838Z,13.69
2024-01-19T14:00:06.916Z,13.70
2024-01-19T14:02:35.379Z,13.68
2024-01-19T14:05:04.675Z,13.64
2024-01-19T14:07:33.207Z,13.69
2024-01-19T14:10:00.666Z,13.69
2024-01-19T14:12:28.229Z,13.71
2024-01-19T14:14:55.697Z,13.74
2024-01-19T14:17:23.309Z,13.65
2024-01-19T14:19:50.578Z,13.68
2024-01-19T14:22:17.890Z,13.68
2024-01-19T14:24:45.025Z,13.67
2024-01-19T14:27:12.081Z,13.64
2024-01-19T14:29:39.593Z,13.61
2024-01-19T14:32:07.203Z,13.62
2024-01-19T14:34:39.828Z,13.58
2024-01-19T14:37:13.556Z,13.45
2024-01-19T14:39:43.341Z,13.41
2024-01-19T14:42:10.687Z,13.42
2024-01-19T14:44:37.827Z,13.40
2024-01-19T14:47:05.829Z,13.39
2024-01-19T14:49:37.973Z,13.38
2024-01-19T14:52:06.672Z,13.30
2024-01-19T14:54:35.293Z,13.22
2024-01-19T14:57:02.764Z,13.23
2024-01-19T14:59:29.890Z,13.22
2024-01-19T15:01:58.066Z,13.24
2024-01-19T15:04:26.041Z,13.28
2024-01-19T15:06:53.433Z,13.25
2024-01-19T15:09:20.601Z,13.23
2024-01-19T15:11:47.773Z,13.26
2024-01-19T15:14:14.961Z,13.28
2024-01-19T15:16:42.463Z,13.23
2024-01-19T15:19:09.723Z,13.27
2024-01-19T15:21:36.796Z,13.29
2024-01-19T15:24:07.881Z,13.15
2024-01-19T15:26:36.010Z,13.22
2024-01-19T15:29:03.709Z,13.27
2024-01-19T15:31:31.075Z,13.27
2024-01-19T15:33:58.441Z,13.31
2024-01-19T15:36:25.662Z,13.07
2024-01-19T15:38:52.831Z,12.87
2024-01-19T15:41:25.250Z,12.88
2024-01-19T15:43:52.788Z,12.84
2024-01-19T15:46:24.186Z,12.95
2024-01-19T15:49:02.987Z,13.08
2024-01-19T15:51:34.409Z,13.14
2024-01-19T15:54:02.210Z,12.93
2024-01-19T15:56:36.669Z,12.66
2024-01-19T15:59:07.132Z,12.65
2024-01-19T16:01:35.092Z,12.64
2024-01-19T16:04:04.200Z,12.54
2024-01-19T16:06:32.834Z,12.51
2024-01-19T16:08:59.981Z,12.54
2024-01-19T16:11:27.093Z,12.56
2024-01-19T16:13:54.156Z,12.61
2024-01-19T16:16:21.355Z,12.39
2024-01-19T16:18:48.398Z,12.26
2024-01-19T16:21:21.339Z,12.39
2024-01-19T16:23:48.543Z,12.48
2024-01-19T16:26:19.488Z,12.58
2024-01-19T16:28:49.565Z,12.73
2024-01-19T16:31:17.650Z,12.83
2024-01-19T16:33:44.688Z,12.73
2024-01-19T16:36:11.884Z,12.73
2024-01-19T16:38:41.469Z,12.70
2024-01-19T16:41:08.637Z,12.73
2024-01-19T16:43:36.000Z,12.81
2024-01-19T16:46:03.957Z,12.85
2024-01-19T16:48:31.010Z,12.85
2024-01-19T16:51:00.795Z,12.84
2024-01-19T16:53:28.013Z,12.84
2024-01-19T16:55:59.718Z,12.82
2024-01-19T16:58:26.830Z,12.83
2024-01-19T17:00:53.991Z,12.83
2024-01-19T17:03:22.126Z,12.78
2024-01-19T17:05:49.418Z,12.76
2024-01-19T17:08:16.698Z,12.80
2024-01-19T17:10:43.958Z,12.80
2024-01-19T17:13:11.194Z,12.78
2024-01-19T17:15:38.353Z,12.80
2024-01-19T17:18:06.105Z,12.79
2024-01-19T17:20:34.251Z,12.68
2024-01-19T17:23:01.577Z,12.73
2024-01-19T17:25:29.360Z,12.59
2024-01-19T17:27:57.536Z,12.57
2024-01-19T17:30:25.402Z,12.60
2024-01-19T17:32:56.733Z,12.63
2024-01-19T17:35:24.721Z,12.59
2024-01-19T17:37:52.459Z,12.60
2024-01-19T17:40:21.253Z,12.59
2024-01-19T17:42:49.334Z,12.58
2024-01-19T17:45:22.220Z,12.53
2024-01-19T17:47:52.702Z,12.56
2024-01-19T17:50:21.470Z,12.47
2024-01-19T17:52:49.748Z,12.47
2024-01-19T17:55:17.213Z,12.49
2024-01-19T17:57:49.717Z,12.29
2024-01-19T18:00:18.115Z,12.32
2024-01-19T18:02:46.264Z,12.34
2024-01-19T18:05:13.662Z,12.18
2024-01-19T18:07:41.301Z,12.19
2024-01-19T18:10:08.939Z,12.17
2024-01-19T18:12:36.401Z,12.22
2024-01-19T18:15:07.925Z,12.20
2024-01-19T18:17:35.686Z,12.21
2024-01-19T18:20:03.538Z,12.19
2024-01-19T18:22:32.556Z,12.12
2024-01-19T18:24:59.803Z,11.96
2024-01-19T18:27:29.417Z,12.04
2024-01-19T18:29:56.810Z,12.11
2024-01-19T18:32:24.497Z,12.14
2024-01-19T18:34:52.055Z,12.16
2024-01-19T18:37:19.376Z,12.14
2024-01-19T18:39:46.423Z,12.16
2024-01-19T18:42:13.542Z,12.11
2024-01-19T18:44:40.998Z,12.15
2024-01-19T18:47:08.450Z,12.16
2024-01-19T18:49:35.928Z,12.16
2024-01-19T18:52:03.328Z,12.14
2024-01-19T18:54:30.530Z,12.13
2024-01-19T18:56:57.825Z,12.12
2024-01-19T18:59:27.068Z,12.14
2024-01-19T19:01:54.697Z,12.09
2024-01-19T19:04:21.891Z,12.05
2024-01-19T19:06:49.740Z,12.03
2024-01-19T19:09:17.064Z,12.03
2024-01-19T19:11:46.183Z,12.01
2024-01-19T19:14:14.627Z,12.00
2024-01-19T19:16:46.526Z,11.99
2024-01-19T19:19:16.031Z,11.98
2024-01-19T19:21:43.797Z,11.98
2024-01-19T19:24:11.118Z,11.99
2024-01-19T19:26:39.452Z,11.98
2024-01-19T19:29:07.478Z,11.99
2024-01-19T19:31:34.846Z,11.97
2024-01-19T19:34:02.460Z,11.96
2024-01-19T19:36:30.799Z,11.92
2024-01-19T19:38:58.910Z,11.92
2024-01-19T19:41:27.584Z,11.91
2024-01-19T19:43:54.737Z,11.87
2024-01-19T19:46:21.847Z,11.83
2024-01-19T19:48:49.010Z,11.80
2024-01-19T19:51:18.576Z,11.76
2024-01-19T19:53:49.351Z,11.76
2024-01-19T19:56:17.083Z,11.75
2024-01-19T19:58:47.155Z,11.75
2024-01-19T20:01:14.342Z,11.72
2024-01-19T20:03:41.331Z,11.73
2024-01-19T20:06:09.689Z,11.68
2024-01-19T20:08:37.283Z,11.72
2024-01-19T20:11:05.459Z,11.70
2024-01-19T20:13:34.269Z,11.74
2024-01-19T20:16:01.844Z,11.76
2024-01-19T20:18:31.006Z,11.74
2024-01-19T20:20:58.579Z,11.76
2024-01-19T20:23:26.565Z,11.74
2024-01-19T20:25:54.189Z,11.75
2024-01-19T20:28:22.254Z,11.71
2024-01-19T20:30:49.816Z,11.74
2024-01-19T20:33:17.521Z,11.76
2024-01-19T20:35:44.865Z,11.73
2024-01-19T20:38:12.831Z,11.76
2024-01-19T20:40:40.140Z,11.80
2024-01-19T20:43:08.073Z,11.80
2024-01-19T20:45:35.205Z,11.78
2024-01-19T20:48:03.384Z,11.79
2024-01-19T20:50:30.594Z,11.79
2024-01-19T20:52:57.703Z,11.78
2024-01-19T20:55:25.492Z,11.80
2024-01-19T20:57:52.542Z,11.82
2024-01-19T21:00:23.693Z,11.81
2024-01-19T21:02:51.461Z,11.80
2024-01-19T21:05:19.965Z,11.75
2024-01-19T21:07:48.341Z,11.83
2024-01-19T21:10:15.622Z,11.84
2024-01-19T21:12:43.697Z,11.84
2024-01-19T21:15:12.405Z,11.89
2024-01-19T21:17:41.230Z,11.91
2024-01-19T21:20:09.728Z,11.89
2024-01-19T21:22:37.860Z,11.92
2024-01-19T21:25:06.695Z,11.89
2024-01-19T21:27:36.343Z,11.74
2024-01-19T21:30:03.715Z,11.74
2024-01-19T21:32:30.950Z,11.72
2024-01-19T21:34:58.092Z,11.75
2024-01-19T21:37:25.488Z,11.78
2024-01-19T21:39:54.534Z,11.65
2024-01-19T21:42:21.601Z,11.69
2024-01-19T21:44:48.698Z,11.72
2024-01-19T21:47:15.849Z,11.74
2024-01-19T21:49:43.740Z,11.67
2024-01-19T21:52:11.478Z,11.68
2024-01-19T21:54:39.180Z,11.72
2024-01-19T21:57:06.490Z,11.71
2024-01-19T21:59:33.560Z,11.70
2024-01-19T22:02:00.670Z,11.75
2024-01-19T22:04:27.955Z,11.79
2024-01-19T22:06:55.197Z,11.74
2024-01-19T22:09:22.657Z,11.76
2024-01-19T22:11:55.265Z,11.77
2024-01-19T22:14:26.801Z,11.75
2024-01-19T22:16:54.221Z,11.66
2024-01-19T22:19:23.864Z,11.74
2024-01-19T22:21:51.812Z,11.70
2024-01-19T22:24:22.286Z,11.55
2024-01-19T22:26:50.134Z,11.63
2024-01-19T22:29:17.886Z,11.66
2024-01-19T22:31:45.518Z,11.57
2024-01-19T22:34:16.205Z,11.61
2024-01-19T22:36:46.126Z,11.66
2024-01-19T22:39:13.975Z,11.54
2024-01-19T22:41:42.889Z,11.58
2024-01-19T22:44:10.677Z,11.61
2024-01-19T22:46:37.917Z,11.65
2024-01-19T22:49:05.256Z,11.63
2024-01-19T22:51:32.946Z,11.64
2024-01-19T22:54:00.493Z,11.69
2024-01-19T22:56:27.527Z,11.69
2024-01-19T22:58:55.997Z,11.69
2024-01-19T23:01:23.924Z,11.71
2024-01-19T23:03:51.187Z,11.71
2024-01-19T23:06:18.369Z,11.68
2024-01-19T23:08:45.419Z,11.67
2024-01-19T23:11:12.674Z,11.63
2024-01-19T23:13:40.041Z,11.61
2024-01-19T23:16:08.485Z,11.62
2024-01-19T23:18:35.546Z,11.62
2024-01-19T23:21:03.009Z,11.56
2024-01-19T23:23:30.682Z,11.53
2024-01-19T23:25:57.898Z,11.50
2024-01-19T23:28:25.017Z,11.50
2024-01-19T23:30:52.260Z,11.47
2024-01-19T23:33:20.753Z,11.45
2024-01-19T23:35:48.723Z,11.42
2024-01-19T23:38:16.379Z,11.46
2024-01-19T23:40:43.676Z,11.34
2024-01-19T23:43:11.384Z,11.35
2024-01-19T23:45:39.038Z,11.10
2024-01-19T23:48:08.006Z,11.12
2024-01-19T23:50:35.799Z,11.14
2024-01-19T23:53:03.290Z,11.16
2024-01-19T23:55:30.421Z,11.21
2024-01-19T23:57:57.629Z,11.15
